Latest Weather Observations for Darwin Airport

IDD60801

Issued at 12:05 pm CST Wednesday 26 November 2014 (issued every 30 minutes, with the page automatically refreshed every 10 minutes)

About weather observations | Map of weather stations | Latest weather observations for NT | Other Formats
Station Details ID: 014015 Name: DARWIN AIRPORT Lat: -12.42 Lon: 130.89 Height: 30.4 m
Data from the previous 72 hours. | See also: Recent months at Darwin Airport
Date/Time
CST
Temp
°C
App
Temp
°C
Dew
Point
Rel
Hum
%
Delta-T
°C
Wind Press
QNH
hPa
Press
MSL
hPa
Rain
since 9 am
mm
Dir
 
Spd
km/h
Gust
km/h
Spd
kts
Gust
kts
26/12:00pm 32.2 36.0 22.4 56 6.7 ENE 6 11 3 6 1008.0 - 0.0
26/11:30am 31.2 35.4 23.2 62 5.5 E 6 11 3 6 1008.4 - 0.0
26/11:00am 31.3 34.6 23.8 64 5.2 NNE 13 19 7 10 1008.8 - 0.0
26/10:30am 30.5 33.5 24.0 68 4.5 ENE 15 24 8 13 1009.2 - 0.0
26/10:00am 29.8 32.4 24.0 71 4.0 NE 17 20 9 11 1009.3 - 0.0
26/09:30am 28.7 31.6 23.8 75 3.4 ENE 15 19 8 10 1009.4 - 0.0
26/09:00am 28.0 30.9 23.8 78 2.9 E 15 19 8 10 1009.4 1009.1 14.4
26/08:30am 27.9 30.4 23.2 75 3.2 E 15 19 8 10 1009.3 - 14.4
26/08:00am 26.7 29.1 23.0 80 2.5 E 15 19 8 10 1008.7 - 14.4
26/07:30am 26.0 29.0 23.4 85 1.8 ENE 13 15 7 8 1008.2 - 14.4
26/07:00am 25.4 29.1 23.2 88 1.5 ENE 9 13 5 7 1008.0 - 14.4
26/06:30am 25.0 28.5 23.5 91 1.0 E 11 13 6 7 1007.4 - 14.4
26/06:00am 25.0 28.0 23.4 91 1.1 E 13 15 7 8 1007.2 1006.9 14.4
26/05:30am 25.0 28.4 23.4 91 1.1 E 11 15 6 8 1006.8 - 14.4
26/05:00am 25.1 28.1 23.3 90 1.2 E 13 15 7 8 1006.6 - 14.4
26/04:30am 25.0 28.6 23.7 92 0.9 E 11 15 6 8 1006.7 - 14.4
26/04:00am 25.3 29.3 23.7 91 1.1 ESE 9 11 5 6 1006.6 - 14.4
26/03:30am 25.2 28.2 23.4 90 1.2 ESE 13 15 7 8 1006.7 - 14.4
26/03:00am 25.2 28.0 23.6 91 1.1 E 15 19 8 10 1006.9 1006.6 14.4
26/02:30am 25.3 27.7 23.7 91 1.1 ESE 17 19 9 10 1007.3 - 14.4
26/02:00am 25.2 28.4 23.7 91 1.0 E 13 15 7 8 1007.3 - 14.4
26/01:30am 25.4 28.9 23.6 90 1.2 SE 11 13 6 7 1007.4 - 14.4
26/01:00am 25.4 29.3 24.2 93 0.8 SE 11 15 6 8 1007.6 - 14.4
26/12:30am 25.6 29.2 24.4 93 0.8 SE 13 17 7 9 1008.2 - 14.4
26/12:00am 25.7 30.1 24.5 93 0.8 SE 9 11 5 6 1008.2 1007.9 14.4
 
Date/Time
CST
Temp
°C
App
Temp
°C
Dew
Point
Rel
Hum
%
Delta-T
°C
Wind Press
QNH
hPa
Press
MSL
hPa
Rain
since 9 am
mm
Dir
 
Spd
km/h
Gust
km/h
Spd
kts
Gust
kts
25/11:30pm 25.7 30.5 24.5 93 0.8 SSE 7 9 4 5 1008.5 - 14.4
25/11:00pm 25.7 30.5 24.4 92 0.9 SSE 7 9 4 5 1008.5 - 14.4
25/10:30pm 25.4 29.7 24.2 93 0.8 SE 9 11 5 6 1008.4 - 14.4
25/10:00pm 25.3 29.2 24.3 94 0.7 SSE 11 15 6 8 1008.5 - 14.4
25/09:30pm 25.5 30.2 24.3 93 0.8 E 7 9 4 5 1008.0 - 14.4
25/09:00pm 25.4 31.2 23.9 91 1.0 CALM 0 0 0 0 1008.0 1007.7 14.4
25/08:30pm 24.9 28.9 23.7 93 0.8 NNE 9 15 5 8 1007.7 - 14.4
25/08:00pm 24.7 28.5 23.5 93 0.8 NE 9 11 5 6 1007.5 - 14.4
25/07:30pm 24.6 28.0 23.3 92 0.9 NE 11 15 6 8 1007.0 - 14.4
25/07:00pm 25.1 28.2 24.2 95 0.6 NE 15 19 8 10 1006.8 - 14.4
25/06:30pm 25.1 28.8 23.9 93 0.8 NE 11 13 6 7 1006.7 - 14.2
25/06:00pm 24.8 28.8 23.8 94 0.7 ESE 9 13 5 7 1006.8 1006.5 14.0
25/05:30pm 24.3 28.1 23.4 95 0.6 SW 9 15 5 8 1007.3 - 13.8
25/05:00pm 24.4 26.3 22.8 91 1.1 ESE 17 22 9 12 1006.7 - 11.4
25/04:45pm 26.2 27.1 23.9 87 1.6 ENE 26 35 14 19 1006.9 - 5.8
25/04:37pm 27.0 28.5 21.3 71 3.8 NE 15 22 8 12 1006.8 - 0.0
25/04:30pm 26.7 25.0 21.3 72 3.6 NE 32 48 17 26 1006.6 - 0.0
25/04:19pm 27.2 24.0 21.8 72 3.6 NE 41 46 22 25 1006.4 - 0.0
25/04:00pm 31.4 31.3 22.3 58 6.2 NNW 26 39 14 21 1006.1 - 0.0
25/03:30pm 32.7 33.1 23.8 59 6.2 WNW 28 33 15 18 1006.0 - 0.0
25/03:00pm 34.2 34.7 21.2 46 8.8 W 20 28 11 15 1006.3 1006.0 0.0
25/02:30pm 33.5 36.0 22.4 52 7.6 S 13 17 7 9 1006.3 - 0.0
25/02:00pm 32.8 34.9 23.1 56 6.7 SSW 17 26 9 14 1006.3 - 0.0
25/01:30pm 32.5 34.0 23.1 57 6.5 SSW 20 26 11 14 1007.1 - 0.0
25/01:00pm 32.2 35.0 23.6 60 6.0 SSW 15 20 8 11 1007.9 - 0.0
25/12:30pm 31.5 34.9 23.4 62 5.6 S 11 20 6 11 1008.6 - 0.0
25/12:00pm 30.7 34.0 23.8 66 4.8 S 13 20 7 11 1009.1 1008.8 0.0
25/11:30am 30.7 35.6 23.0 63 5.3 SW 2 7 1 4 1009.3 - 0.0
25/11:00am 30.2 34.7 23.7 68 4.5 SSW 6 9 3 5 1009.5 - 0.0
25/10:30am 29.6 33.4 23.5 69 4.2 S 9 13 5 7 1009.8 - 0.0
25/10:00am 29.6 34.0 23.5 69 4.2 SW 6 19 3 10 1009.8 - 0.0
25/09:30am 30.4 34.7 23.3 66 4.9 SE 6 9 3 5 1009.7 - 0.0
25/09:00am 29.6 33.4 23.4 69 4.3 SSE 9 11 5 6 1009.7 1009.4 0.0
25/08:30am 28.6 32.2 23.8 75 3.3 SSE 11 13 6 7 1009.4 - 0.0
25/08:00am 28.5 32.8 23.7 75 3.3 E 7 11 4 6 1009.1 - 0.0
25/07:30am 28.5 32.8 23.7 75 3.3 ENE 7 11 4 6 1008.7 - 0.0
25/07:00am 26.7 31.0 23.6 83 2.1 E 7 9 4 5 1008.3 - 0.0
25/06:30am 26.0 30.0 23.7 87 1.6 E 9 9 5 5 1008.1 - 0.0
25/06:00am 26.0 29.7 23.2 84 1.9 ESE 9 11 5 6 1008.0 1007.7 0.0
25/05:30am 26.0 29.3 23.2 84 1.9 ESE 11 13 6 7 1008.1 - 0.0
25/05:00am 25.9 30.3 23.4 86 1.7 ENE 6 9 3 5 1007.7 - 0.0
25/04:30am 25.9 28.9 23.3 85 1.8 E 13 15 7 8 1008.1 - 0.0
25/04:00am 26.1 29.2 23.5 85 1.8 SSE 13 17 7 9 1008.1 - 0.0
25/03:30am 26.2 28.3 23.1 83 2.1 SE 17 19 9 10 1008.4 - 0.0
25/03:00am 26.3 29.4 22.9 81 2.3 SE 11 13 6 7 1008.1 1007.8 0.0
25/02:30am 26.5 29.5 22.7 79 2.6 E 11 13 6 7 1007.8 - 0.0
25/02:00am 26.2 29.4 23.1 83 2.1 ENE 11 15 6 8 1007.9 - 0.0
25/01:30am 26.1 28.9 23.0 83 2.1 ENE 13 15 7 8 1008.1 - 0.0
25/01:00am 26.3 28.0 21.7 76 3.1 NE 15 20 8 11 1008.4 - 0.0
25/12:30am 27.0 29.9 21.8 73 3.5 SE 9 17 5 9 1008.3 - 0.0
25/12:00am 26.9 31.6 22.0 74 3.3 CALM 0 0 0 0 1008.7 1008.4 0.0
 
Date/Time
CST
Temp
°C
App
Temp
°C
Dew
Point
Rel
Hum
%
Delta-T
°C
Wind Press
QNH
hPa
Press
MSL
hPa
Rain
since 9 am
mm
Dir
 
Spd
km/h
Gust
km/h
Spd
kts
Gust
kts
24/11:30pm 26.9 30.9 22.1 75 3.2 S 4 7 2 4 1009.0 - 0.0
24/11:00pm 26.7 29.6 21.8 74 3.3 SE 9 9 5 5 1009.5 - 0.0
24/10:30pm 26.7 28.4 22.4 77 2.9 SSE 17 24 9 13 1010.0 - 0.0
24/10:00pm 26.8 28.7 22.8 79 2.7 SE 17 20 9 11 1009.7 - 0.0
24/09:30pm 27.0 30.8 24.0 83 2.1 S 11 15 6 8 1009.2 - 0.0
24/09:00pm 26.6 29.6 24.6 89 1.4 SSW 17 22 9 12 1008.9 1008.6 0.0
24/08:51pm 26.5 28.0 24.3 88 1.5 SSW 24 33 13 18 1009.3 - 0.0
24/08:30pm 26.2 28.1 23.4 84 1.9 S 19 26 10 14 1009.9 - 0.0
24/08:00pm 26.1 27.1 24.1 89 1.4 SSE 26 35 14 19 1009.9 - 0.0
24/07:30pm 27.5 28.8 24.0 81 2.4 SSE 24 32 13 17 1010.1 - 0.0
24/07:00pm 28.7 29.0 23.6 74 3.5 S 28 37 15 20 1008.8 - 0.0
24/06:57pm 29.3 28.9 23.0 69 4.3 S 30 37 16 20 1008.9 - 0.0
24/06:30pm 31.0 31.5 22.7 61 5.7 WNW 24 30 13 16 1007.8 - 0.0
24/06:00pm 31.5 31.9 21.8 56 6.6 NW 22 28 12 15 1007.4 1007.1 0.0
24/05:30pm 32.3 33.0 22.2 55 6.9 WNW 22 28 12 15 1006.8 - 0.0
24/05:00pm 32.6 32.4 19.4 45 8.7 N 19 26 10 14 1006.3 - 0.0
24/04:30pm 33.1 33.4 20.4 47 8.5 NNW 19 24 10 13 1006.6 - 0.0
24/04:00pm 33.3 32.8 19.0 42 9.4 NNW 20 26 11 14 1006.3 - 0.0
24/03:30pm 33.2 32.5 20.2 46 8.7 NNW 24 28 13 15 1006.3 - 0.0
24/03:00pm 32.7 33.4 22.2 54 7.2 NNW 22 28 12 15 1007.0 1006.7 0.0
24/02:30pm 33.7 33.7 21.7 49 8.2 N 24 32 13 17 1007.2 - 0.0
24/02:00pm 34.0 34.6 21.3 47 8.6 NNW 20 28 11 15 1007.6 - 0.0
24/01:30pm 33.0 34.3 21.7 51 7.7 N 17 22 9 12 1008.6 - 0.0
24/01:00pm 33.4 34.7 21.6 50 8.0 NW 17 24 9 13 1009.4 - 0.0
24/12:30pm 33.3 34.3 21.7 50 7.9 W 19 26 10 14 1010.0 - 0.0
24/12:00pm 32.6 34.8 21.9 53 7.3 NW 13 22 7 12 1010.5 1010.2 0.0
24/11:30am 31.8 34.8 21.9 55 6.7 NW 9 17 5 9 1010.8 - 0.0
24/11:00am 31.5 34.0 21.8 56 6.6 NW 11 19 6 10 1011.0 - 0.0
24/10:30am 32.7 35.6 21.8 52 7.4 WNW 9 13 5 7 1011.2 - 0.0
24/10:00am 31.1 33.9 20.8 54 6.9 NW 7 19 4 10 1011.2 - 0.0
24/09:30am 31.5 34.8 21.8 56 6.6 W 7 13 4 7 1011.4 - 0.0
24/09:00am 30.1 33.0 21.8 61 5.6 WNW 9 13 5 7 1011.3 1011.0 0.0
24/08:30am 30.3 34.2 21.9 60 5.7 NNW 4 9 2 5 1011.2 - 0.0
24/08:00am 29.6 33.2 23.0 67 4.5 ENE 9 13 5 7 1011.2 - 0.0
24/07:30am 28.7 33.1 23.8 75 3.4 ENE 7 11 4 6 1010.8 - 0.0
24/07:00am 27.3 32.6 23.7 81 2.5 E 2 6 1 3 1010.7 - 0.0
24/06:30am 25.9 30.1 23.4 86 1.7 NE 7 9 4 5 1010.1 - 0.0
24/06:00am 25.7 29.3 23.1 85 1.8 ENE 9 11 5 6 1009.8 1009.5 0.0
24/05:30am 25.8 29.3 22.8 83 2.0 NNE 9 11 5 6 1009.7 - 0.0
24/05:00am 26.0 29.5 22.8 82 2.2 N 9 11 5 6 1009.6 - 0.0
24/04:30am 26.0 29.1 22.9 83 2.1 N 11 13 6 7 1009.5 - 0.0
24/04:00am 25.7 28.7 22.7 83 2.0 N 11 11 6 6 1009.5 - 0.0
24/03:30am 26.3 29.2 22.4 79 2.6 N 11 13 6 7 1009.5 - 0.0
24/03:00am 26.5 29.2 22.8 80 2.5 NNE 13 15 7 8 1009.5 1009.2 0.0
24/02:30am 26.8 29.9 22.8 79 2.7 N 11 15 6 8 1009.6 - 0.0
24/02:00am 27.7 31.3 23.0 75 3.2 N 9 11 5 6 1009.6 - 0.0
24/01:30am 28.3 31.6 23.2 74 3.5 N 11 13 6 7 1010.1 - 0.0
24/01:00am 28.9 32.9 23.8 74 3.5 N 9 15 5 8 1010.2 - 0.0
24/12:30am 29.3 33.6 24.3 74 3.5 NNW 9 13 5 7 1010.1 - 0.0
24/12:00am 29.7 33.4 24.6 74 3.6 NNW 13 17 7 9 1010.1 1009.8 0.0
 
Date/Time
CST
Temp
°C
App
Temp
°C
Dew
Point
Rel
Hum
%
Delta-T
°C
Wind Press
QNH
hPa
Press
MSL
hPa
Rain
since 9 am
mm
Dir
 
Spd
km/h
Gust
km/h
Spd
kts
Gust
kts
23/11:30pm 29.7 33.2 24.9 75 3.4 NNW 15 19 8 10 1010.0 - 0.0
23/11:00pm 30.0 33.5 24.9 74 3.6 NNW 15 22 8 12 1010.0 - 0.0
23/10:30pm 30.0 32.8 25.0 74 3.5 NNW 19 24 10 13 1009.9 - 0.0
23/10:00pm 30.2 32.9 25.1 74 3.6 NNW 20 28 11 15 1009.5 - 0.0
23/09:30pm 30.7 32.4 24.1 68 4.6 NNW 22 33 12 18 1009.1 - 0.0
23/09:00pm 30.8 33.3 24.8 70 4.2 NNW 20 28 11 15 1008.9 1008.6 0.0
23/08:30pm 31.1 32.4 22.3 59 6.0 NNW 19 24 10 13 1008.8 - 0.0
23/08:00pm 31.2 32.8 21.4 56 6.6 N 15 20 8 11 1008.1 - 0.0
23/07:30pm 31.6 32.3 20.5 51 7.4 NNE 17 24 9 13 1007.6 - 0.0
23/07:00pm 31.7 32.8 22.0 56 6.6 N 19 26 10 14 1007.2 - 0.0
23/06:30pm 32.7 32.8 21.8 52 7.4 NNE 24 32 13 17 1007.0 - 0.0
23/06:00pm 33.2 32.2 19.6 44 9.0 N 24 28 13 15 1006.8 1006.5 0.0
23/05:30pm 34.0 32.4 19.3 42 9.7 N 26 35 14 19 1006.6 - 0.0
23/05:00pm 34.5 33.4 20.3 43 9.5 N 26 33 14 18 1006.7 - 0.0
23/04:30pm 34.1 33.2 20.7 45 9.0 N 26 32 14 17 1007.2 - 0.0
23/04:00pm 33.7 33.8 21.8 49 8.1 N 24 32 13 17 1007.3 - 0.0
23/03:30pm 34.3 34.6 22.9 51 7.9 N 26 32 14 17 1007.8 - 0.0
23/03:00pm 33.3 33.9 24.2 59 6.4 N 28 33 15 18 1008.2 1007.9 0.0
23/02:30pm 33.3 34.4 23.7 57 6.7 NNW 24 30 13 16 1008.6 - 0.0
23/02:00pm 33.3 34.8 23.7 57 6.7 NNW 22 28 12 15 1009.1 - 0.0
23/01:30pm 33.1 35.2 23.1 55 6.9 NNW 17 24 9 13 1009.3 - 0.0
23/01:00pm 32.4 34.2 23.3 58 6.3 NW 19 28 10 15 1009.9 - 0.0
23/12:30pm 32.2 34.4 23.2 59 6.2 NNW 17 22 9 12 1010.4 - 0.0

Other Formats:

Comma delimited format used in spreadsheet applications
http://www.bom.gov.au/fwo/IDD60801/IDD60801.94120.axf

JavaScript Object Notation format (JSON) in row-major order
http://www.bom.gov.au/fwo/IDD60801/IDD60801.94120.json